Time;durP1;ratioP1;P1;durP2;ratioP2;P2;SDS_P1;SDS_P2;PMS_P1;PMS_P2;Temp;Humidity;BMP_temperature;BMP_pressure;BME280_temperature;BME280_humidity;BME280_pressure;Samples;Min_cycle;Max_cycle;Signal;HPM_P1;HPM_P2
2021/12/29 00:01:24;;;;;;;12.57;9.33;;;;;;;;;;5014421;28;20263;-66
2021/12/29 00:03:50;;;;;;;10.70;9.60;;;;;;;;;;5014279;28;20208;-66
2021/12/29 00:06:16;;;;;;;13.83;9.73;;;;;;;;;;5015116;28;20180;-66
2021/12/29 00:08:42;;;;;;;15.20;9.97;;;;;;;;;;5014653;28;20544;-66
2021/12/29 00:11:09;;;;;;;10.87;8.90;;;;;;;;;;5015225;28;20180;-66
2021/12/29 00:13:35;;;;;;;11.73;9.50;;;;;;;;;;5029318;28;20247;-66
2021/12/29 00:16:02;;;;;;;10.03;9.03;;;;;;;;;;5029361;28;20180;-66
2021/12/29 00:18:30;;;;;;;10.30;9.27;;;;;;;;;;5014214;28;20203;-66
2021/12/29 00:20:57;;;;;;;11.30;8.73;;;;;;;;;;5014367;28;20176;-65
2021/12/29 00:23:23;;;;;;;12.87;9.30;;;;;;;;;;5014054;28;20199;-66
2021/12/29 00:25:49;;;;;;;12.23;10.10;;;;;;;;;;5014059;28;20276;-66
2021/12/29 00:28:15;;;;;;;10.63;9.53;;;;;;;;;;5014648;28;20215;-65
2021/12/29 00:30:41;;;;;;;11.43;9.10;;;;;;;;;;5013665;28;20180;-66
2021/12/29 00:33:07;;;;;;;12.13;8.73;;;;;;;;;;5013825;28;20209;-65
2021/12/29 00:35:35;;;;;;;13.33;9.03;;;;;;;;;;5029137;28;20172;-67
2021/12/29 00:38:02;;;;;;;10.73;8.87;;;;;;;;;;5014245;28;20176;-66
2021/12/29 00:40:29;;;;;;;16.70;8.70;;;;;;;;;;5014088;28;20195;-66
2021/12/29 00:42:55;;;;;;;11.00;8.67;;;;;;;;;;5028990;28;20179;-65
2021/12/29 00:45:21;;;;;;;15.20;8.93;;;;;;;;;;5013957;28;20568;-66
2021/12/29 00:47:48;;;;;;;12.70;8.33;;;;;;;;;;5029563;28;20179;-66
2021/12/29 00:50:15;;;;;;;12.27;8.97;;;;;;;;;;5015068;28;20175;-66
2021/12/29 00:52:42;;;;;;;10.77;8.93;;;;;;;;;;5029390;28;20190;-66
2021/12/29 00:55:08;;;;;;;10.80;7.63;;;;;;;;;;5029071;28;20215;-65
2021/12/29 00:57:34;;;;;;;12.80;9.57;;;;;;;;;;5014259;28;20551;-66
2021/12/29 01:00:00;;;;;;;11.03;8.13;;;;;;;;;;5029330;28;20190;-66
2021/12/29 01:02:26;;;;;;;9.40;8.10;;;;;;;;;;5029169;28;20247;-66
2021/12/29 01:04:53;;;;;;;11.27;8.57;;;;;;;;;;5014020;28;20231;-65
2021/12/29 01:07:19;;;;;;;8.30;7.10;;;;;;;;;;5014196;28;20179;-65
2021/12/29 01:09:45;;;;;;;8.10;6.57;;;;;;;;;;5014442;28;20184;-66
2021/12/29 01:12:12;;;;;;;7.50;6.80;;;;;;;;;;5013950;28;20242;-66
2021/12/29 01:14:44;;;;;;;8.73;7.13;;;;;;;;;;5013758;28;20219;-66
2021/12/29 01:17:10;;;;;;;9.33;6.60;;;;;;;;;;5029239;28;20179;-66
2021/12/29 01:19:36;;;;;;;8.20;6.90;;;;;;;;;;5014277;28;20188;-66
2021/12/29 01:22:03;;;;;;;7.23;6.40;;;;;;;;;;5014121;28;20258;-66
2021/12/29 01:24:30;;;;;;;7.80;7.00;;;;;;;;;;5028872;28;20199;-66
2021/12/29 01:26:56;;;;;;;7.93;5.87;;;;;;;;;;5013904;28;20228;-65
2021/12/29 01:29:23;;;;;;;6.63;5.93;;;;;;;;;;5028982;28;20640;-66
2021/12/29 01:31:49;;;;;;;8.13;6.20;;;;;;;;;;5029009;28;20184;-66
2021/12/29 01:34:15;;;;;;;8.53;6.93;;;;;;;;;;5013974;28;20211;-66
2021/12/29 01:36:41;;;;;;;8.17;7.20;;;;;;;;;;5013705;28;20210;-66
2021/12/29 01:39:09;;;;;;;11.40;7.13;;;;;;;;;;5013667;28;20176;-66
2021/12/29 01:41:35;;;;;;;7.17;6.50;;;;;;;;;;5014213;28;20175;-66
2021/12/29 01:44:01;;;;;;;9.23;7.00;;;;;;;;;;5032502;28;20751;-66
2021/12/29 01:46:27;;;;;;;9.73;7.60;;;;;;;;;;5032678;28;20187;-66
2021/12/29 01:48:54;;;;;;;7.87;6.17;;;;;;;;;;5017479;28;20187;-66
2021/12/29 01:51:20;;;;;;;11.17;7.60;;;;;;;;;;5018113;28;20184;-66
2021/12/29 01:54:00;;;;;;;7.97;6.97;;;;;;;;;;5017033;28;20211;-66
2021/12/29 01:56:26;;;;;;;9.13;6.97;;;;;;;;;;5017326;28;20167;-66
2021/12/29 01:58:53;;;;;;;7.70;6.90;;;;;;;;;;5032588;28;20558;-66
2021/12/29 02:01:19;;;;;;;9.57;7.47;;;;;;;;;;5017218;28;20176;-67
2021/12/29 02:03:47;;;;;;;8.17;7.17;;;;;;;;;;5017214;28;20214;-66
2021/12/29 02:06:13;;;;;;;7.60;6.80;;;;;;;;;;5016968;28;20172;-66
2021/12/29 02:08:39;;;;;;;7.47;6.67;;;;;;;;;;5017207;28;20175;-66
2021/12/29 02:11:07;;;;;;;7.97;6.53;;;;;;;;;;5032207;28;20187;-65
2021/12/29 02:13:33;;;;;;;8.47;6.30;;;;;;;;;;5017027;28;20239;-66
2021/12/29 02:15:59;;;;;;;8.00;5.70;;;;;;;;;;5016875;28;20242;-66
2021/12/29 02:18:25;;;;;;;8.43;5.70;;;;;;;;;;5017024;28;20633;-66
2021/12/29 02:20:53;;;;;;;7.50;5.63;;;;;;;;;;5032214;28;20558;-66
2021/12/29 02:23:31;;;;;;;5.93;5.00;;;;;;;;;;5016807;28;20204;-65
2021/12/29 02:25:58;;;;;;;8.90;5.87;;;;;;;;;;5016944;28;20164;-66
2021/12/29 02:28:33;;;;;;;7.10;6.13;;;;;;;;;;5031771;28;20176;-66
2021/12/29 02:30:59;;;;;;;7.90;6.63;;;;;;;;;;5016577;28;20211;-65
2021/12/29 02:33:26;;;;;;;8.23;5.70;;;;;;;;;;5032475;28;20310;-66
2021/12/29 02:35:51;;;;;;;7.90;6.57;;;;;;;;;;5017213;28;20176;-66
2021/12/29 02:38:19;;;;;;;7.30;5.70;;;;;;;;;;5017451;28;20593;-66
2021/12/29 02:40:48;;;;;;;7.83;6.40;;;;;;;;;;5017574;28;20218;-66
2021/12/29 02:43:19;;;;;;;7.67;6.63;;;;;;;;;;5016304;28;20246;-66
2021/12/29 02:45:49;;;;;;;9.07;7.17;;;;;;;;;;5016293;28;20191;-66
2021/12/29 02:48:15;;;;;;;7.77;6.73;;;;;;;;;;5016397;28;20734;-66
2021/12/29 02:50:42;;;;;;;7.97;6.77;;;;;;;;;;5016005;28;20549;-66
2021/12/29 02:53:09;;;;;;;8.20;7.00;;;;;;;;;;5015450;28;20207;-66
2021/12/29 02:55:35;;;;;;;8.17;7.07;;;;;;;;;;5031138;28;20176;-66
2021/12/29 02:58:01;;;;;;;9.47;7.00;;;;;;;;;;5031311;28;20234;-67
2021/12/29 03:00:27;;;;;;;9.13;8.23;;;;;;;;;;5015675;28;20506;-66
2021/12/29 03:02:53;;;;;;;8.73;7.83;;;;;;;;;;5030648;28;20274;-65
2021/12/29 03:05:23;;;;;;;8.50;7.50;;;;;;;;;;5015945;28;20179;-67
2021/12/29 03:07:49;;;;;;;10.33;7.70;;;;;;;;;;5030852;28;20648;-66
2021/12/29 03:10:15;;;;;;;9.03;7.83;;;;;;;;;;5030540;28;20242;-67
2021/12/29 03:12:41;;;;;;;9.83;8.70;;;;;;;;;;5015389;28;20656;-66
2021/12/29 03:15:07;;;;;;;10.57;8.00;;;;;;;;;;5030297;28;20262;-65
2021/12/29 03:17:33;;;;;;;10.27;7.90;;;;;;;;;;5030580;28;20190;-65
2021/12/29 03:19:59;;;;;;;11.20;9.13;;;;;;;;;;5030509;28;20547;-66
2021/12/29 03:22:25;;;;;;;10.20;9.17;;;;;;;;;;5015109;28;20179;-66
2021/12/29 03:24:51;;;;;;;11.13;9.47;;;;;;;;;;5030154;28;20294;-66
2021/12/29 03:27:18;;;;;;;11.50;9.30;;;;;;;;;;5014905;28;20180;-66
2021/12/29 03:29:44;;;;;;;11.63;9.70;;;;;;;;;;5030073;28;20678;-66
2021/12/29 03:32:20;;;;;;;10.60;9.40;;;;;;;;;;5030205;28;20184;-66
2021/12/29 03:34:46;;;;;;;12.47;9.77;;;;;;;;;;5014938;28;20690;-65
2021/12/29 03:37:12;;;;;;;13.40;10.17;;;;;;;;;;5029999;28;20552;-66
2021/12/29 03:39:38;;;;;;;14.90;9.87;;;;;;;;;;5015334;28;20184;-66
2021/12/29 03:42:04;;;;;;;10.93;9.37;;;;;;;;;;5014795;28;20179;-65
2021/12/29 03:44:30;;;;;;;13.73;10.13;;;;;;;;;;5029737;28;20302;-66
2021/12/29 03:46:56;;;;;;;14.27;10.07;;;;;;;;;;5015155;28;20208;-66
2021/12/29 03:49:22;;;;;;;13.97;9.77;;;;;;;;;;5013331;28;20186;-65
2021/12/29 03:51:48;;;;;;;12.13;10.03;;;;;;;;;;5014581;28;20191;-65
2021/12/29 03:54:14;;;;;;;13.57;10.80;;;;;;;;;;5014226;28;20593;-66
2021/12/29 03:56:40;;;;;;;10.93;9.57;;;;;;;;;;5014692;28;20182;-65
2021/12/29 03:59:06;;;;;;;12.00;9.60;;;;;;;;;;5029526;28;20179;-66
2021/12/29 04:01:32;;;;;;;12.73;10.40;;;;;;;;;;5014587;28;20180;-65
2021/12/29 04:03:58;;;;;;;14.00;10.80;;;;;;;;;;5012995;28;20227;-66
2021/12/29 04:06:24;;;;;;;12.87;10.07;;;;;;;;;;5013602;28;20207;-65
2021/12/29 04:08:51;;;;;;;12.40;10.83;;;;;;;;;;5014368;28;20207;-66
2021/12/29 04:11:18;;;;;;;16.03;10.53;;;;;;;;;;5013051;28;20188;-65
2021/12/29 04:13:47;;;;;;;12.60;10.07;;;;;;;;;;5012738;28;20219;-66
2021/12/29 04:16:16;;;;;;;14.53;10.20;;;;;;;;;;5014037;28;20178;-66
2021/12/29 04:18:55;;;;;;;10.53;9.30;;;;;;;;;;5012820;28;20600;-66
2021/12/29 04:21:22;;;;;;;12.57;9.27;;;;;;;;;;5014251;28;20243;-66
2021/12/29 04:23:47;;;;;;;11.87;9.57;;;;;;;;;;5013954;28;20231;-66
2021/12/29 04:26:13;;;;;;;11.60;10.10;;;;;;;;;;5014291;28;20238;-66
2021/12/29 04:28:39;;;;;;;12.00;9.67;;;;;;;;;;5012702;28;20241;-66
2021/12/29 04:31:08;;;;;;;12.17;9.90;;;;;;;;;;5014343;28;20599;-66
2021/12/29 04:33:34;;;;;;;13.17;9.17;;;;;;;;;;5028937;28;20278;-66
2021/12/29 04:36:00;;;;;;;11.67;9.77;;;;;;;;;;5013750;28;20194;-66
2021/12/29 04:38:27;;;;;;;15.33;10.30;;;;;;;;;;5013868;28;20644;-66
2021/12/29 04:40:54;;;;;;;11.73;9.27;;;;;;;;;;5012422;28;20186;-67
2021/12/29 04:43:20;;;;;;;10.60;9.30;;;;;;;;;;5013864;28;20210;-66
2021/12/29 04:45:47;;;;;;;9.23;8.30;;;;;;;;;;5013993;28;20695;-66
2021/12/29 04:48:14;;;;;;;9.40;8.50;;;;;;;;;;5028924;28;20188;-66
2021/12/29 04:50:50;;;;;;;9.27;7.03;;;;;;;;;;5013478;28;20182;-66
2021/12/29 04:53:17;;;;;;;7.83;7.03;;;;;;;;;;5013381;28;20632;-67
2021/12/29 04:55:47;;;;;;;7.67;6.87;;;;;;;;;;5013640;28;20545;-66
2021/12/29 04:58:14;;;;;;;8.07;7.27;;;;;;;;;;5013899;28;20167;-66
2021/12/29 05:00:40;;;;;;;8.30;7.33;;;;;;;;;;5028847;28;20635;-66
2021/12/29 05:03:06;;;;;;;11.83;7.43;;;;;;;;;;5013728;28;20255;-65
2021/12/29 05:10:43;;;;;;;11.63;7.77;;;;;;;;;;5014081;28;20218;-66
2021/12/29 05:13:09;;;;;;;9.93;7.90;;;;;;;;;;5013381;28;20176;-66
2021/12/29 05:15:35;;;;;;;9.87;8.37;;;;;;;;;;5013476;28;20180;-66
2021/12/29 05:18:01;;;;;;;8.23;7.30;;;;;;;;;;5017174;28;20180;-66
2021/12/29 05:20:28;;;;;;;10.53;7.73;;;;;;;;;;5017461;28;20632;-65
2021/12/29 05:22:55;;;;;;;8.33;6.03;;;;;;;;;;5032513;28;20179;-66
2021/12/29 05:25:21;;;;;;;6.80;5.83;;;;;;;;;;5017572;28;20215;-66
2021/12/29 05:27:48;;;;;;;8.07;5.20;;;;;;;;;;5017118;28;20183;-66
2021/12/29 05:30:14;;;;;;;6.13;4.73;;;;;;;;;;5017222;28;20203;-66
2021/12/29 05:32:40;;;;;;;6.03;5.00;;;;;;;;;;5017352;28;20183;-66
2021/12/29 05:35:06;;;;;;;6.30;5.27;;;;;;;;;;5016851;28;20211;-66
2021/12/29 05:37:32;;;;;;;6.73;5.57;;;;;;;;;;5016902;28;20180;-66
2021/12/29 05:39:58;;;;;;;7.03;6.20;;;;;;;;;;5016976;28;20176;-66
2021/12/29 05:42:24;;;;;;;7.63;6.17;;;;;;;;;;5017241;28;20176;-66
2021/12/29 05:44:50;;;;;;;9.40;7.63;;;;;;;;;;5016751;28;20614;-66
2021/12/29 05:47:16;;;;;;;14.30;9.13;;;;;;;;;;5017292;28;20187;-66
2021/12/29 05:49:42;;;;;;;13.10;10.03;;;;;;;;;;5032138;28;20187;-66
2021/12/29 05:52:10;;;;;;;14.13;11.43;;;;;;;;;;5015415;28;20180;-66
2021/12/29 05:54:36;;;;;;;12.63;11.07;;;;;;;;;;5016453;28;20220;-66
2021/12/29 05:57:02;;;;;;;18.77;12.03;;;;;;;;;;5016595;28;20183;-67
2021/12/29 05:59:29;;;;;;;14.57;12.30;;;;;;;;;;5015313;28;20182;-66
2021/12/29 06:01:54;;;;;;;19.80;13.30;;;;;;;;;;5016528;28;20184;-66
2021/12/29 06:04:20;;;;;;;20.03;14.40;;;;;;;;;;5016385;28;20727;-66
2021/12/29 06:06:46;;;;;;;20.20;15.10;;;;;;;;;;5016398;28;20640;-66
2021/12/29 06:09:14;;;;;;;22.70;14.90;;;;;;;;;;5015220;28;20274;-66
2021/12/29 06:11:40;;;;;;;23.23;15.27;;;;;;;;;;5015166;28;20188;-67
2021/12/29 06:14:06;;;;;;;25.87;16.97;;;;;;;;;;5016438;28;20219;-66
2021/12/29 06:16:32;;;;;;;20.03;15.63;;;;;;;;;;5016206;28;20194;-66
2021/12/29 06:18:58;;;;;;;24.17;16.67;;;;;;;;;;5016232;28;20180;-67
2021/12/29 06:21:24;;;;;;;25.20;17.07;;;;;;;;;;5016193;28;20180;-66
2021/12/29 06:23:50;;;;;;;25.33;17.57;;;;;;;;;;5016280;28;20228;-66
2021/12/29 06:26:16;;;;;;;28.37;18.73;;;;;;;;;;5016161;28;20219;-67
2021/12/29 06:28:43;;;;;;;26.80;18.73;;;;;;;;;;5014099;28;20180;-66
2021/12/29 06:31:09;;;;;;;31.00;18.70;;;;;;;;;;5014764;28;20564;-66
2021/12/29 06:33:35;;;;;;;26.00;18.30;;;;;;;;;;5014451;28;20212;-66
2021/12/29 06:36:01;;;;;;;26.17;18.07;;;;;;;;;;5016154;28;20632;-67
2021/12/29 06:38:27;;;;;;;25.93;18.73;;;;;;;;;;5014500;28;20279;-66
2021/12/29 06:40:53;;;;;;;27.10;19.83;;;;;;;;;;5016114;28;20183;-66
2021/12/29 06:43:19;;;;;;;24.63;17.80;;;;;;;;;;5014358;28;20211;-67
2021/12/29 06:45:45;;;;;;;27.63;20.23;;;;;;;;;;5014400;28;20632;-66
2021/12/29 06:48:11;;;;;;;29.87;19.83;;;;;;;;;;5015963;28;20191;-66
2021/12/29 06:50:37;;;;;;;28.53;21.07;;;;;;;;;;5015725;28;20187;-66
2021/12/29 06:53:03;;;;;;;26.77;18.97;;;;;;;;;;5014021;28;20191;-67
2021/12/29 06:55:29;;;;;;;26.00;19.90;;;;;;;;;;5015935;28;20168;-66
2021/12/29 06:57:55;;;;;;;30.07;19.57;;;;;;;;;;5015459;28;20560;-66
2021/12/29 07:00:21;;;;;;;29.33;21.47;;;;;;;;;;5014223;28;20180;-66
2021/12/29 07:02:47;;;;;;;27.57;20.13;;;;;;;;;;5016008;28;20172;-66
2021/12/29 07:05:15;;;;;;;26.20;19.97;;;;;;;;;;5015236;28;20200;-66
2021/12/29 07:07:42;;;;;;;30.47;21.07;;;;;;;;;;5015359;28;20179;-66
2021/12/29 07:10:08;;;;;;;28.30;20.20;;;;;;;;;;5015323;28;20231;-67
2021/12/29 07:12:34;;;;;;;31.43;21.60;;;;;;;;;;5015205;28;20184;-66
2021/12/29 07:15:00;;;;;;;29.53;21.37;;;;;;;;;;5014918;28;20585;-66
2021/12/29 07:17:26;;;;;;;33.07;20.37;;;;;;;;;;5015396;28;20191;-66
2021/12/29 07:19:52;;;;;;;32.80;21.67;;;;;;;;;;5013693;28;20179;-66
2021/12/29 07:22:19;;;;;;;32.80;21.93;;;;;;;;;;5014996;28;20250;-67
2021/12/29 07:24:44;;;;;;;33.33;22.47;;;;;;;;;;5013588;28;20210;-66
2021/12/29 07:27:10;;;;;;;29.33;21.13;;;;;;;;;;5014851;28;20180;-65
2021/12/29 07:29:37;;;;;;;35.30;25.13;;;;;;;;;;5013594;28;20287;-65
2021/12/29 07:32:03;;;;;;;47.00;30.30;;;;;;;;;;5014933;28;20183;-66
2021/12/29 07:34:30;;;;;;;45.33;31.13;;;;;;;;;;5013353;28;20220;-65
2021/12/29 07:36:56;;;;;;;43.57;30.27;;;;;;;;;;5015235;28;20207;-65
2021/12/29 07:39:22;;;;;;;54.73;34.30;;;;;;;;;;5013744;28;20184;-65
2021/12/29 07:41:49;;;;;;;72.53;43.73;;;;;;;;;;5014621;28;20182;-65
2021/12/29 07:44:17;;;;;;;49.83;34.00;;;;;;;;;;5014402;28;20282;-66
2021/12/29 07:46:45;;;;;;;52.43;31.00;;;;;;;;;;5013214;28;20648;-66
2021/12/29 07:49:10;;;;;;;42.27;27.23;;;;;;;;;;5014637;28;20229;-66
2021/12/29 07:51:36;;;;;;;41.83;26.87;;;;;;;;;;5014652;28;20258;-66
2021/12/29 07:54:03;;;;;;;36.53;23.67;;;;;;;;;;5014024;28;20224;-66
2021/12/29 07:56:29;;;;;;;35.67;21.90;;;;;;;;;;5014797;28;20228;-63
2021/12/29 07:58:55;;;;;;;38.10;23.43;;;;;;;;;;5014097;28;20171;-65
2021/12/29 08:01:21;;;;;;;37.47;23.03;;;;;;;;;;5014447;28;20659;-65
2021/12/29 08:03:47;;;;;;;48.50;28.07;;;;;;;;;;5014070;28;20196;-65
2021/12/29 08:06:15;;;;;;;41.20;26.83;;;;;;;;;;5012768;28;20286;-65
2021/12/29 08:08:41;;;;;;;43.80;25.07;;;;;;;;;;5012824;28;20237;-65
2021/12/29 08:11:07;;;;;;;37.00;23.33;;;;;;;;;;5014037;28;20187;-65
2021/12/29 08:13:33;;;;;;;36.07;23.43;;;;;;;;;;5012537;28;20207;-65
2021/12/29 08:15:59;;;;;;;36.83;24.00;;;;;;;;;;5014585;28;20624;-65
2021/12/29 08:18:25;;;;;;;38.00;25.10;;;;;;;;;;5013991;28;20258;-65
2021/12/29 08:20:51;;;;;;;37.23;23.87;;;;;;;;;;5013943;28;20222;-66
2021/12/29 08:23:17;;;;;;;39.23;23.47;;;;;;;;;;5013928;28;20204;-64
2021/12/29 08:25:43;;;;;;;37.77;25.50;;;;;;;;;;5013881;28;20214;-64
2021/12/29 08:28:09;;;;;;;39.60;26.57;;;;;;;;;;5013771;28;20171;-64
2021/12/29 08:30:35;;;;;;;29.30;22.40;;;;;;;;;;5013816;28;20557;-64
2021/12/29 08:33:01;;;;;;;34.60;22.70;;;;;;;;;;5013833;28;20179;-65
2021/12/29 08:35:27;;;;;;;32.27;23.43;;;;;;;;;;5013545;28;20636;-65
2021/12/29 08:37:54;;;;;;;41.67;26.30;;;;;;;;;;5014096;28;20298;-65
2021/12/29 08:40:20;;;;;;;37.13;23.83;;;;;;;;;;5014887;28;20183;-65
2021/12/29 08:42:47;;;;;;;32.80;23.50;;;;;;;;;;5014906;28;20188;-65
2021/12/29 08:45:15;;;;;;;37.00;23.37;;;;;;;;;;5013142;28;20227;-65
2021/12/29 08:47:41;;;;;;;34.70;23.97;;;;;;;;;;5012756;28;20183;-65
2021/12/29 08:50:09;;;;;;;35.43;24.40;;;;;;;;;;5013823;28;20183;-65
2021/12/29 08:52:35;;;;;;;45.63;31.57;;;;;;;;;;5012014;28;20235;-65
2021/12/29 08:55:02;;;;;;;46.03;28.13;;;;;;;;;;5014611;28;20215;-64
2021/12/29 08:57:28;;;;;;;33.60;25.00;;;;;;;;;;5012368;28;20175;-65
2021/12/29 08:59:54;;;;;;;25.63;20.00;;;;;;;;;;5012371;28;20271;-66
2021/12/29 09:02:20;;;;;;;33.87;21.30;;;;;;;;;;5013579;28;20596;-65
2021/12/29 09:04:46;;;;;;;30.40;20.73;;;;;;;;;;5013456;28;20210;-65
2021/12/29 09:07:12;;;;;;;27.90;18.90;;;;;;;;;;5013279;28;20237;-65
2021/12/29 09:09:38;;;;;;;27.30;18.10;;;;;;;;;;5012052;28;20283;-65
2021/12/29 09:12:04;;;;;;;25.03;17.37;;;;;;;;;;5012110;28;20183;-65
2021/12/29 09:14:30;;;;;;;25.90;17.27;;;;;;;;;;5013095;28;20215;-64
2021/12/29 09:16:56;;;;;;;23.13;15.63;;;;;;;;;;5013399;28;20179;-64
2021/12/29 09:19:23;;;;;;;25.53;16.43;;;;;;;;;;5013303;28;20230;-65
2021/12/29 09:21:52;;;;;;;19.80;14.43;;;;;;;;;;5013265;28;20171;-65
2021/12/29 09:24:18;;;;;;;20.67;13.63;;;;;;;;;;5013253;28;20743;-64
2021/12/29 09:26:44;;;;;;;18.97;13.77;;;;;;;;;;5013393;28;20180;-65
2021/12/29 09:29:10;;;;;;;23.90;14.20;;;;;;;;;;5012061;28;20190;-65
2021/12/29 09:31:36;;;;;;;23.63;13.60;;;;;;;;;;5011991;28;20187;-66
2021/12/29 09:34:02;;;;;;;21.77;13.47;;;;;;;;;;5011825;28;20212;-65
2021/12/29 09:36:28;;;;;;;18.63;13.63;;;;;;;;;;5013525;28;20211;-65
2021/12/29 09:38:54;;;;;;;18.97;13.47;;;;;;;;;;5013447;28;20176;-65
2021/12/29 09:41:20;;;;;;;16.90;12.83;;;;;;;;;;5012296;28;20176;-65
2021/12/29 09:43:47;;;;;;;15.87;12.70;;;;;;;;;;5013124;28;20208;-64
2021/12/29 09:46:13;;;;;;;21.13;12.93;;;;;;;;;;5011899;28;20180;-65
2021/12/29 09:48:40;;;;;;;16.90;11.47;;;;;;;;;;5011795;28;20183;-65
2021/12/29 09:51:07;;;;;;;16.90;11.53;;;;;;;;;;5013154;28;20187;-64
2021/12/29 09:53:34;;;;;;;17.13;11.67;;;;;;;;;;5011280;28;20230;-65
2021/12/29 09:56:00;;;;;;;13.43;11.20;;;;;;;;;;5012181;28;20180;-64
2021/12/29 09:58:26;;;;;;;16.27;11.70;;;;;;;;;;5012737;28;20172;-65
2021/12/29 10:00:56;;;;;;;14.27;10.90;;;;;;;;;;5013120;28;20598;-65
2021/12/29 10:03:24;;;;;;;22.03;17.00;;;;;;;;;;5013933;28;20227;-65
2021/12/29 10:05:51;;;;;;;16.63;13.97;;;;;;;;;;5016343;28;20183;-65
2021/12/29 10:08:24;;;;;;;19.63;12.87;;;;;;;;;;5016242;28;20176;-65
2021/12/29 10:10:51;;;;;;;11.87;9.63;;;;;;;;;;5016430;28;20199;-65
2021/12/29 10:13:18;;;;;;;12.93;10.33;;;;;;;;;;5016298;28;20237;-65
2021/12/29 10:15:48;;;;;;;15.50;9.80;;;;;;;;;;5016193;28;20180;-65
2021/12/29 10:18:16;;;;;;;14.63;9.93;;;;;;;;;;5016503;28;20204;-65
2021/12/29 10:20:57;;;;;;;14.37;9.57;;;;;;;;;;5016498;28;20522;-65
2021/12/29 10:23:28;;;;;;;12.80;9.50;;;;;;;;;;5016009;28;20266;-64
2021/12/29 10:25:56;;;;;;;11.80;8.47;;;;;;;;;;5015933;28;20210;-64
2021/12/29 10:28:29;;;;;;;12.33;9.40;;;;;;;;;;5016314;28;20176;-64
2021/12/29 10:30:59;;;;;;;14.73;10.53;;;;;;;;;;5031968;28;20234;-64
2021/12/29 10:33:25;;;;;;;13.27;10.60;;;;;;;;;;5014520;28;20216;-64
2021/12/29 10:35:51;;;;;;;10.53;8.37;;;;;;;;;;5016097;28;20255;-64
2021/12/29 10:38:19;;;;;;;11.20;9.20;;;;;;;;;;5015773;28;20207;-64
2021/12/29 10:40:45;;;;;;;11.77;8.60;;;;;;;;;;5016054;28;20176;-64
2021/12/29 10:43:12;;;;;;;13.07;10.07;;;;;;;;;;5015676;28;20267;-64
2021/12/29 10:45:39;;;;;;;9.30;7.67;;;;;;;;;;5014395;28;20184;-64
2021/12/29 10:48:22;;;;;;;9.70;7.73;;;;;;;;;;5015729;28;20179;-64
2021/12/29 10:50:55;;;;;;;16.00;12.17;;;;;;;;;;5015752;28;20176;-64
2021/12/29 10:53:21;;;;;;;12.27;7.93;;;;;;;;;;5015265;28;20691;-66
2021/12/29 10:55:48;;;;;;;9.77;7.30;;;;;;;;;;5031378;28;20207;-64
2021/12/29 10:58:15;;;;;;;16.77;10.57;;;;;;;;;;5015408;28;20215;-65
2021/12/29 11:00:44;;;;;;;10.57;8.07;;;;;;;;;;5015281;28;20589;-65
2021/12/29 11:03:19;;;;;;;11.63;9.87;;;;;;;;;;5015534;28;20176;-64
2021/12/29 11:05:47;;;;;;;17.60;10.23;;;;;;;;;;5015378;28;20197;-65
2021/12/29 11:08:13;;;;;;;8.80;7.90;;;;;;;;;;5015276;28;20183;-64
2021/12/29 11:10:39;;;;;;;17.93;8.30;;;;;;;;;;5015139;28;20199;-64
2021/12/29 11:13:06;;;;;;;11.23;7.00;;;;;;;;;;5030149;28;20178;-64
2021/12/29 11:15:39;;;;;;;10.27;7.50;;;;;;;;;;5029961;28;20180;-64
2021/12/29 11:18:06;;;;;;;10.50;6.87;;;;;;;;;;5015009;28;20635;-64
2021/12/29 11:20:33;;;;;;;10.90;7.53;;;;;;;;;;5029891;28;20176;-64
2021/12/29 11:23:08;;;;;;;10.63;6.47;;;;;;;;;;5030076;28;20200;-65
2021/12/29 11:25:35;;;;;;;10.70;8.37;;;;;;;;;;5031450;28;20536;-64
2021/12/29 11:28:01;;;;;;;8.27;6.43;;;;;;;;;;5016096;28;20176;-65
2021/12/29 11:30:27;;;;;;;9.33;6.33;;;;;;;;;;5015841;28;20188;-64
2021/12/29 11:33:02;;;;;;;12.37;6.73;;;;;;;;;;5030166;28;20183;-64
2021/12/29 11:35:28;;;;;;;10.10;6.57;;;;;;;;;;5029968;28;20191;-64
2021/12/29 11:37:55;;;;;;;7.90;6.57;;;;;;;;;;5014778;28;20183;-64
2021/12/29 11:40:24;;;;;;;9.47;6.77;;;;;;;;;;5014984;28;20179;-65
2021/12/29 11:42:52;;;;;;;8.23;6.13;;;;;;;;;;5014782;28;20259;-64
2021/12/29 11:45:19;;;;;;;9.17;7.50;;;;;;;;;;5014493;28;20238;-65
2021/12/29 11:47:45;;;;;;;12.53;6.50;;;;;;;;;;5014469;28;20658;-66
2021/12/29 11:50:12;;;;;;;10.00;6.37;;;;;;;;;;5014331;28;20195;-64
2021/12/29 11:52:46;;;;;;;9.67;6.30;;;;;;;;;;5014602;28;20551;-64
2021/12/29 11:55:26;;;;;;;11.17;6.80;;;;;;;;;;5014279;28;20215;-65
2021/12/29 11:57:52;;;;;;;10.03;6.20;;;;;;;;;;5014753;28;20696;-64
2021/12/29 12:00:22;;;;;;;13.20;6.97;;;;;;;;;;5029317;28;20574;-64
2021/12/29 12:02:52;;;;;;;10.97;6.47;;;;;;;;;;5014068;28;20211;-65
2021/12/29 12:05:24;;;;;;;9.53;5.50;;;;;;;;;;5014654;28;20203;-64
2021/12/29 12:07:50;;;;;;;11.07;5.77;;;;;;;;;;5014293;28;20168;-65
2021/12/29 12:10:35;;;;;;;11.87;6.63;;;;;;;;;;5014402;28;20183;-66
2021/12/29 12:13:02;;;;;;;17.00;7.23;;;;;;;;;;5029228;28;20182;-65
2021/12/29 12:15:33;;;;;;;10.07;6.33;;;;;;;;;;5014101;28;20204;-66
2021/12/29 12:18:07;;;;;;;13.87;6.87;;;;;;;;;;5013950;28;20610;-65
2021/12/29 12:20:39;;;;;;;8.73;6.23;;;;;;;;;;5014462;28;20617;-66
2021/12/29 12:23:06;;;;;;;8.60;6.93;;;;;;;;;;5014228;28;20230;-66
2021/12/29 12:25:32;;;;;;;12.80;6.70;;;;;;;;;;5013788;28;20172;-65
2021/12/29 12:28:03;;;;;;;11.03;6.77;;;;;;;;;;5013611;28;20223;-65
2021/12/29 12:30:46;;;;;;;12.53;6.60;;;;;;;;;;5013994;28;20157;-65
2021/12/29 12:33:17;;;;;;;12.20;6.23;;;;;;;;;;5013877;28;20175;-65
2021/12/29 12:35:48;;;;;;;14.37;5.60;;;;;;;;;;5013997;28;20546;-65
2021/12/29 12:38:15;;;;;;;9.47;5.50;;;;;;;;;;5013623;28;20227;-65
2021/12/29 12:40:43;;;;;;;10.37;5.70;;;;;;;;;;5013467;28;20227;-65
2021/12/29 12:43:11;;;;;;;8.73;5.87;;;;;;;;;;5013608;28;20172;-65
2021/12/29 12:45:39;;;;;;;12.57;8.67;;;;;;;;;;5013563;28;20168;-65
2021/12/29 12:48:08;;;;;;;18.97;9.87;;;;;;;;;;5028816;28;20233;-65
2021/12/29 12:50:34;;;;;;;13.00;6.90;;;;;;;;;;5013562;28;20208;-65
2021/12/29 12:53:01;;;;;;;12.30;6.60;;;;;;;;;;5013340;28;20222;-65
2021/12/29 12:55:28;;;;;;;10.17;6.47;;;;;;;;;;5013699;28;20196;-65
2021/12/29 12:57:54;;;;;;;10.67;6.30;;;;;;;;;;5013746;28;20215;-65
2021/12/29 13:00:25;;;;;;;10.20;5.63;;;;;;;;;;5028456;28;20248;-65
2021/12/29 13:02:58;;;;;;;7.17;4.70;;;;;;;;;;5013706;28;20635;-65
2021/12/29 13:05:27;;;;;;;7.03;5.03;;;;;;;;;;5013326;28;20286;-65
2021/12/29 13:08:05;;;;;;;12.23;5.77;;;;;;;;;;5013289;28;20188;-65
2021/12/29 13:10:34;;;;;;;8.13;5.53;;;;;;;;;;5013352;28;20695;-65
2021/12/29 13:13:09;;;;;;;9.70;5.67;;;;;;;;;;5013585;28;20607;-65
2021/12/29 13:15:36;;;;;;;12.07;5.97;;;;;;;;;;5013330;28;20174;-65
2021/12/29 13:18:03;;;;;;;9.50;5.67;;;;;;;;;;5028348;28;20230;-65
2021/12/29 13:20:29;;;;;;;14.53;5.80;;;;;;;;;;5013482;28;20172;-65
2021/12/29 13:22:55;;;;;;;11.20;5.70;;;;;;;;;;5028385;28;20182;-65
2021/12/29 13:25:24;;;;;;;8.17;5.33;;;;;;;;;;5013327;28;20196;-65
2021/12/29 13:28:02;;;;;;;9.87;5.13;;;;;;;;;;5013467;28;20176;-65
2021/12/29 13:30:34;;;;;;;10.83;5.47;;;;;;;;;;5013135;28;20198;-65
2021/12/29 13:33:01;;;;;;;8.83;5.40;;;;;;;;;;5028224;28;20245;-65
2021/12/29 13:35:29;;;;;;;6.87;5.03;;;;;;;;;;5013237;28;20206;-65
2021/12/29 13:37:56;;;;;;;10.70;5.50;;;;;;;;;;5013037;28;20172;-65
2021/12/29 13:40:34;;;;;;;8.17;4.30;;;;;;;;;;5017116;28;20212;-65
2021/12/29 13:43:00;;;;;;;6.60;4.57;;;;;;;;;;5016759;28;20186;-65
2021/12/29 13:45:27;;;;;;;12.03;4.73;;;;;;;;;;5031985;28;20183;-65
2021/12/29 13:47:53;;;;;;;9.80;3.90;;;;;;;;;;5016725;28;20180;-65
2021/12/29 13:50:20;;;;;;;9.63;4.83;;;;;;;;;;5016648;28;20556;-65
2021/12/29 13:53:05;;;;;;;10.07;4.00;;;;;;;;;;5016505;28;20179;-65
2021/12/29 13:55:36;;;;;;;9.37;3.60;;;;;;;;;;5016808;28;20195;-65
2021/12/29 13:58:02;;;;;;;11.27;4.50;;;;;;;;;;5031728;28;20183;-64
2021/12/29 14:00:29;;;;;;;8.57;4.23;;;;;;;;;;5032495;28;20597;-64
2021/12/29 14:02:55;;;;;;;11.47;4.80;;;;;;;;;;5016322;28;20659;-64
2021/12/29 14:05:21;;;;;;;6.03;3.97;;;;;;;;;;5031658;28;20211;-65
2021/12/29 14:07:47;;;;;;;8.57;4.63;;;;;;;;;;5031559;28;20187;-65
2021/12/29 14:10:14;;;;;;;8.70;4.80;;;;;;;;;;5016237;28;20609;-65
2021/12/29 14:12:41;;;;;;;10.17;4.53;;;;;;;;;;5016431;28;20262;-64
2021/12/29 14:15:09;;;;;;;9.23;5.20;;;;;;;;;;5031205;28;20204;-65
2021/12/29 14:17:39;;;;;;;7.03;4.30;;;;;;;;;;5016491;28;20179;-64
2021/12/29 14:20:06;;;;;;;8.40;4.83;;;;;;;;;;5016020;28;20226;-65
2021/12/29 14:22:32;;;;;;;8.37;5.40;;;;;;;;;;5016475;28;20180;-65
2021/12/29 14:25:07;;;;;;;9.37;6.07;;;;;;;;;;5030924;28;20345;-65
2021/12/29 14:27:34;;;;;;;16.00;7.47;;;;;;;;;;5031217;28;20186;-64
2021/12/29 14:30:11;;;;;;;14.70;8.20;;;;;;;;;;5031178;28;20194;-64
2021/12/29 14:32:37;;;;;;;14.93;8.23;;;;;;;;;;5015920;28;20166;-65
2021/12/29 14:35:05;;;;;;;9.43;6.23;;;;;;;;;;5015699;28;20207;-64